Time;durP1;ratioP1;P1;durP2;ratioP2;P2;SDS_P1;SDS_P2;PMS_P1;PMS_P2;Temp;Humidity;BMP_temperature;BMP_pressure;BME280_temperature;BME280_humidity;BME280_pressure;Samples;Min_cycle;Max_cycle;Signal;HPM_P1;HPM_P2
2024/03/26 00:01:57;;;;;;;;;;;9.30;90.80;;;;;;5104124;27;19988;-75
2024/03/26 00:04:23;;;;;;;;;;;9.40;91.00;;;;;;5106877;27;20047;-75
2024/03/26 00:06:48;;;;;;;;;;;9.40;90.70;;;;;;5104788;27;20023;-74
2024/03/26 00:09:14;;;;;;;;;;;9.40;90.50;;;;;;5100035;28;20000;-74
2024/03/26 00:11:39;;;;;;;;;;;9.40;90.30;;;;;;5106366;27;20003;-74
2024/03/26 00:14:07;;;;;;;;;;;8.80;94.10;;;;;;5105436;27;20577;-74
2024/03/26 00:16:32;;;;;;;;;;;8.90;94.30;;;;;;5099741;28;19999;-75
2024/03/26 00:18:58;;;;;;;;;;;8.70;94.40;;;;;;5103247;28;20062;-74
2024/03/26 00:21:23;;;;;;;;;;;8.90;93.20;;;;;;5103142;27;19993;-74
2024/03/26 00:23:49;;;;;;;;;;;9.10;92.90;;;;;;5078408;27;19989;-74
2024/03/26 00:26:14;;;;;;;;;;;8.90;92.40;;;;;;5096673;28;19989;-75
2024/03/26 00:28:40;;;;;;;;;;;8.90;91.50;;;;;;5105460;27;20000;-75
2024/03/26 00:31:05;;;;;;;;;;;9.00;91.60;;;;;;5087046;28;19997;-74
2024/03/26 00:33:31;;;;;;;;;;;8.90;91.40;;;;;;5106279;27;20639;-75
2024/03/26 00:35:57;;;;;;;;;;;9.00;90.60;;;;;;5103735;28;20008;-75
2024/03/26 00:38:22;;;;;;;;;;;9.00;92.00;;;;;;5103008;28;20005;-75
2024/03/26 00:40:48;;;;;;;;;;;8.80;93.60;;;;;;5085050;28;20518;-75
2024/03/26 00:43:13;;;;;;;;;;;8.60;96.20;;;;;;5104543;27;20649;-74
2024/03/26 00:45:39;;;;;;;;;;;8.60;99.90;;;;;;5103086;28;19999;-75
2024/03/26 00:48:05;;;;;;;;;;;8.50;99.90;;;;;;5103641;28;19985;-75
2024/03/26 00:50:30;;;;;;;;;;;8.50;99.10;;;;;;5105041;27;19992;-74
2024/03/26 00:52:56;;;;;;;;;;;8.40;99.90;;;;;;5086823;28;19992;-74
2024/03/26 00:55:21;;;;;;;;;;;8.40;99.90;;;;;;5103051;27;20020;-74
2024/03/26 00:57:48;;;;;;;;;;;8.40;99.90;;;;;;5105843;27;19998;-74
2024/03/26 01:00:14;;;;;;;;;;;7.90;99.90;;;;;;5099505;27;19989;-74
2024/03/26 01:02:40;;;;;;;;;;;7.70;99.90;;;;;;5106033;27;19988;-74
2024/03/26 01:05:06;;;;;;;;;;;7.80;99.90;;;;;;5102070;28;20095;-74
2024/03/26 01:07:31;;;;;;;;;;;7.70;99.90;;;;;;5105931;27;20064;-74
2024/03/26 01:09:57;;;;;;;;;;;7.60;99.90;;;;;;5098330;28;19993;-74
2024/03/26 01:12:22;;;;;;;;;;;7.50;99.90;;;;;;5098395;28;19996;-74
2024/03/26 01:14:48;;;;;;;;;;;7.60;99.90;;;;;;5099087;28;20013;-74
2024/03/26 01:17:14;;;;;;;;;;;7.40;99.90;;;;;;5097231;27;19992;-74
2024/03/26 01:19:39;;;;;;;;;;;7.50;99.90;;;;;;5105393;27;19992;-73
2024/03/26 01:22:05;;;;;;;;;;;7.40;99.90;;;;;;5101773;28;19996;-73
2024/03/26 01:24:30;;;;;;;;;;;7.50;99.90;;;;;;5102573;28;19989;-74
2024/03/26 01:26:56;;;;;;;;;;;7.30;99.90;;;;;;5101993;28;20079;-74
2024/03/26 01:29:21;;;;;;;;;;;7.40;99.90;;;;;;5107335;28;20107;-74
2024/03/26 01:31:47;;;;;;;;;;;7.60;99.90;;;;;;5105164;28;20103;-74
2024/03/26 01:34:16;;;;;;;;;;;7.30;99.90;;;;;;5107038;28;20010;-74
2024/03/26 01:36:41;;;;;;;;;;;7.30;99.90;;;;;;5102411;28;20003;-74
2024/03/26 01:39:07;;;;;;;;;;;7.60;99.90;;;;;;5104258;28;20409;-74
2024/03/26 01:41:33;;;;;;;;;;;7.30;99.90;;;;;;5102460;28;19989;-74
2024/03/26 01:43:58;;;;;;;;;;;7.30;99.90;;;;;;5101985;28;20024;-75
2024/03/26 01:46:24;;;;;;;;;;;7.50;99.90;;;;;;5102019;28;19989;-75
2024/03/26 01:48:49;;;;;;;;;;;7.30;99.90;;;;;;5102259;28;19988;-75
2024/03/26 01:51:15;;;;;;;;;;;7.40;99.90;;;;;;5103842;28;20061;-75
2024/03/26 01:53:41;;;;;;;;;;;7.60;99.90;;;;;;5101953;28;19992;-75
2024/03/26 01:56:06;;;;;;;;;;;7.40;99.90;;;;;;5100737;28;20011;-75
2024/03/26 01:58:32;;;;;;;;;;;7.40;99.90;;;;;;5099439;28;19993;-75
2024/03/26 02:00:59;;;;;;;;;;;7.50;99.90;;;;;;5105250;28;20014;-75
2024/03/26 02:03:25;;;;;;;;;;;7.40;99.90;;;;;;5104858;28;19995;-74
2024/03/26 02:05:51;;;;;;;;;;;7.60;99.90;;;;;;5107786;28;20020;-74
2024/03/26 02:08:16;;;;;;;;;;;7.40;99.90;;;;;;5101433;28;19997;-75
2024/03/26 02:10:42;;;;;;;;;;;7.40;99.90;;;;;;5102672;28;20106;-75
2024/03/26 02:13:08;;;;;;;;;;;7.40;99.90;;;;;;5102780;28;19997;-75
2024/03/26 02:15:33;;;;;;;;;;;7.40;99.90;;;;;;5101900;28;20012;-75
2024/03/26 02:17:59;;;;;;;;;;;7.70;99.90;;;;;;5101740;28;19999;-75
2024/03/26 02:20:24;;;;;;;;;;;7.50;99.90;;;;;;5108273;28;19996;-75
2024/03/26 02:22:56;;;;;;;;;;;7.40;99.90;;;;;;5100141;28;20864;-76
2024/03/26 02:25:22;;;;;;;;;;;7.50;99.90;;;;;;5102496;28;20712;-75
2024/03/26 02:27:48;;;;;;;;;;;7.50;99.90;;;;;;5100238;28;19989;-75
2024/03/26 02:30:14;;;;;;;;;;;7.50;99.90;;;;;;5098106;28;19993;-75
2024/03/26 02:32:39;;;;;;;;;;;7.50;99.90;;;;;;5102384;28;19996;-74
2024/03/26 02:35:05;;;;;;;;;;;7.60;99.90;;;;;;5102360;27;20059;-73
2024/03/26 02:37:30;;;;;;;;;;;7.60;99.90;;;;;;5104735;27;20001;-74
2024/03/26 02:39:56;;;;;;;;;;;7.60;99.90;;;;;;5105330;28;20619;-74
2024/03/26 02:42:22;;;;;;;;;;;7.60;99.90;;;;;;5107014;27;19999;-74
2024/03/26 02:44:47;;;;;;;;;;;7.60;99.90;;;;;;5105312;28;19989;-73
2024/03/26 02:47:13;;;;;;;;;;;7.70;99.90;;;;;;5105757;28;19999;-75
2024/03/26 02:49:38;;;;;;;;;;;7.70;99.90;;;;;;5105513;27;19992;-74
2024/03/26 02:52:04;;;;;;;;;;;7.80;99.90;;;;;;5104759;27;20012;-75
2024/03/26 02:54:29;;;;;;;;;;;7.80;99.90;;;;;;5104410;28;20008;-75
2024/03/26 02:56:55;;;;;;;;;;;7.80;99.90;;;;;;5105103;28;20111;-76
2024/03/26 02:59:21;;;;;;;;;;;7.80;99.90;;;;;;5104655;28;20372;-78
2024/03/26 03:01:46;;;;;;;;;;;7.90;99.90;;;;;;5104513;28;20448;-77
2024/03/26 03:04:12;;;;;;;;;;;7.80;99.90;;;;;;5104318;27;20091;-77
2024/03/26 03:06:37;;;;;;;;;;;7.90;99.90;;;;;;5104795;28;20048;-78
2024/03/26 03:09:03;;;;;;;;;;;7.90;99.90;;;;;;5105969;27;19993;-77
2024/03/26 03:11:28;;;;;;;;;;;7.90;99.90;;;;;;5104317;28;20004;-77
2024/03/26 03:13:54;;;;;;;;;;;7.90;99.90;;;;;;5107033;27;20456;-77
2024/03/26 03:16:19;;;;;;;;;;;7.80;99.90;;;;;;5104621;28;20004;-77
2024/03/26 03:18:45;;;;;;;;;;;7.80;99.90;;;;;;5101944;27;20496;-76
2024/03/26 03:21:11;;;;;;;;;;;7.90;99.90;;;;;;5091030;28;20059;-76
2024/03/26 03:23:36;;;;;;;;;;;7.90;99.90;;;;;;5087903;27;20591;-76
2024/03/26 03:26:02;;;;;;;;;;;7.90;99.90;;;;;;5103766;27;19997;-75
2024/03/26 03:28:28;;;;;;;;;;;7.90;99.90;;;;;;5109894;27;20032;-75
2024/03/26 03:30:54;;;;;;;;;;;7.90;99.90;;;;;;5100066;28;20448;-76
2024/03/26 03:33:19;;;;;;;;;;;7.90;99.90;;;;;;5104440;28;19993;-76
2024/03/26 03:35:45;;;;;;;;;;;7.90;99.90;;;;;;5106237;27;20005;-76
2024/03/26 03:38:11;;;;;;;;;;;7.90;99.90;;;;;;5090174;28;19992;-75
2024/03/26 03:40:37;;;;;;;;;;;7.90;99.90;;;;;;5104461;27;20456;-75
2024/03/26 03:43:02;;;;;;;;;;;7.80;99.90;;;;;;5106079;27;20024;-75
2024/03/26 03:45:28;;;;;;;;;;;7.90;99.90;;;;;;5104203;28;19992;-74
2024/03/26 03:47:54;;;;;;;;;;;7.90;99.90;;;;;;5107677;27;19989;-74
2024/03/26 03:50:20;;;;;;;;;;;7.80;99.90;;;;;;5103740;27;19989;-76
2024/03/26 03:52:45;;;;;;;;;;;7.80;99.90;;;;;;5089679;28;20176;-75
2024/03/26 03:55:11;;;;;;;;;;;7.90;99.90;;;;;;5104263;28;20326;-75
2024/03/26 03:57:38;;;;;;;;;;;7.90;99.90;;;;;;5108349;27;20464;-74
2024/03/26 04:00:06;;;;;;;;;;;7.90;99.90;;;;;;5088465;28;19988;-73
2024/03/26 04:02:32;;;;;;;;;;;8.00;99.90;;;;;;5108957;27;20459;-74
2024/03/26 04:04:58;;;;;;;;;;;8.00;99.90;;;;;;5103647;28;20033;-74
2024/03/26 04:07:23;;;;;;;;;;;8.00;99.90;;;;;;5103949;28;20811;-75
2024/03/26 04:09:51;;;;;;;;;;;8.00;99.90;;;;;;5103085;28;20113;-75
2024/03/26 04:12:17;;;;;;;;;;;8.00;99.90;;;;;;5103587;28;20463;-74
2024/03/26 04:14:42;;;;;;;;;;;8.10;99.90;;;;;;5103123;28;20073;-74
2024/03/26 04:17:08;;;;;;;;;;;8.00;99.90;;;;;;5103113;28;20003;-74
2024/03/26 04:19:33;;;;;;;;;;;8.00;99.90;;;;;;5103802;28;20451;-74
2024/03/26 04:21:59;;;;;;;;;;;8.00;99.90;;;;;;5103122;28;20103;-74
2024/03/26 04:24:25;;;;;;;;;;;8.00;99.90;;;;;;5102997;28;20092;-74
2024/03/26 04:26:50;;;;;;;;;;;8.10;99.90;;;;;;5101625;28;19989;-74
2024/03/26 04:29:16;;;;;;;;;;;8.10;99.90;;;;;;5103123;28;20020;-73
2024/03/26 04:31:41;;;;;;;;;;;8.10;99.90;;;;;;5093830;28;19997;-74
2024/03/26 04:34:07;;;;;;;;;;;8.20;99.90;;;;;;5086152;28;20113;-74
2024/03/26 04:36:33;;;;;;;;;;;8.20;99.90;;;;;;5103528;28;19996;-74
2024/03/26 04:38:58;;;;;;;;;;;8.10;99.90;;;;;;5102179;28;19988;-74
2024/03/26 04:41:24;;;;;;;;;;;8.10;99.90;;;;;;5102780;28;19993;-74
2024/03/26 04:43:50;;;;;;;;;;;8.10;99.90;;;;;;5088366;28;20478;-75
2024/03/26 04:46:15;;;;;;;;;;;8.20;99.90;;;;;;5088773;28;19988;-75
2024/03/26 04:48:41;;;;;;;;;;;8.10;99.90;;;;;;5080489;28;19989;-74
2024/03/26 04:51:06;;;;;;;;;;;8.20;99.90;;;;;;5102716;28;19993;-75
2024/03/26 04:53:32;;;;;;;;;;;8.40;99.90;;;;;;5084678;28;19993;-74
2024/03/26 04:55:57;;;;;;;;;;;8.40;99.90;;;;;;5102497;28;20009;-74
2024/03/26 04:58:23;;;;;;;;;;;8.50;99.90;;;;;;5101910;28;20003;-74
2024/03/26 05:00:48;;;;;;;;;;;8.50;99.90;;;;;;5092942;28;20047;-73
2024/03/26 05:03:14;;;;;;;;;;;8.50;99.90;;;;;;5103020;27;19993;-73
2024/03/26 05:05:39;;;;;;;;;;;8.50;99.90;;;;;;5107780;27;20038;-74
2024/03/26 05:08:05;;;;;;;;;;;8.50;99.90;;;;;;5102769;28;20007;-74
2024/03/26 05:10:31;;;;;;;;;;;8.50;99.90;;;;;;5103234;27;20087;-74
2024/03/26 05:12:56;;;;;;;;;;;8.60;99.90;;;;;;5096962;28;20028;-74
2024/03/26 05:15:22;;;;;;;;;;;8.60;99.90;;;;;;5101571;28;20360;-74
2024/03/26 05:17:47;;;;;;;;;;;8.60;99.90;;;;;;5102051;28;20019;-73
2024/03/26 05:20:13;;;;;;;;;;;8.60;99.90;;;;;;5101894;28;19997;-74
2024/03/26 05:22:39;;;;;;;;;;;8.60;99.90;;;;;;5101955;28;19989;-73
2024/03/26 05:25:06;;;;;;;;;;;8.60;99.90;;;;;;5100982;28;19992;-73
2024/03/26 05:27:34;;;;;;;;;;;8.70;99.90;;;;;;5102887;27;19989;-74
2024/03/26 05:29:59;;;;;;;;;;;8.70;99.90;;;;;;5100600;28;20036;-75
2024/03/26 05:32:25;;;;;;;;;;;8.70;99.90;;;;;;5100415;28;20148;-74
2024/03/26 05:34:51;;;;;;;;;;;8.70;99.90;;;;;;5087110;28;20012;-75
2024/03/26 05:37:16;;;;;;;;;;;8.70;99.90;;;;;;5104369;28;19997;-74
2024/03/26 05:39:43;;;;;;;;;;;8.80;99.90;;;;;;5104361;28;19992;-74
2024/03/26 05:42:09;;;;;;;;;;;8.70;99.90;;;;;;5102576;28;20101;-76
2024/03/26 05:44:35;;;;;;;;;;;8.80;99.90;;;;;;5102422;28;20004;-72
2024/03/26 05:47:00;;;;;;;;;;;8.80;99.90;;;;;;5104971;28;20395;-73
2024/03/26 05:49:26;;;;;;;;;;;8.80;99.90;;;;;;5102344;28;19993;-72
2024/03/26 05:51:51;;;;;;;;;;;8.80;99.90;;;;;;5101893;28;20017;-74
2024/03/26 05:54:17;;;;;;;;;;;8.80;99.90;;;;;;5100930;28;19992;-72
2024/03/26 05:56:43;;;;;;;;;;;8.90;99.90;;;;;;5085643;28;20099;-73
2024/03/26 05:59:08;;;;;;;;;;;8.80;99.90;;;;;;5102522;28;19996;-72
2024/03/26 06:01:34;;;;;;;;;;;8.90;99.90;;;;;;5096143;28;19989;-72
2024/03/26 06:03:59;;;;;;;;;;;8.90;99.90;;;;;;5102323;28;20001;-72
2024/03/26 06:06:25;;;;;;;;;;;8.90;99.90;;;;;;5103697;28;20256;-73
2024/03/26 06:08:51;;;;;;;;;;;8.90;99.90;;;;;;5106494;27;19993;-72
2024/03/26 06:11:16;;;;;;;;;;;8.90;99.90;;;;;;5110177;27;19998;-71
2024/03/26 06:13:42;;;;;;;;;;;8.90;99.90;;;;;;5108594;27;20036;-72
2024/03/26 06:16:08;;;;;;;;;;;9.00;99.90;;;;;;5106044;28;20012;-72
2024/03/26 06:18:34;;;;;;;;;;;8.90;99.90;;;;;;5106411;28;19996;-72
2024/03/26 06:21:00;;;;;;;;;;;9.00;99.90;;;;;;5105812;28;19988;-72
2024/03/26 06:23:25;;;;;;;;;;;9.00;99.90;;;;;;5103397;27;19989;-72
2024/03/26 06:25:51;;;;;;;;;;;9.10;99.90;;;;;;5103244;28;19989;-72
2024/03/26 06:28:17;;;;;;;;;;;9.00;99.90;;;;;;5105643;28;20037;-74
2024/03/26 06:30:43;;;;;;;;;;;9.10;99.90;;;;;;5100506;27;19996;-72
2024/03/26 06:33:11;;;;;;;;;;;9.20;99.90;;;;;;5110371;27;20038;-72
2024/03/26 06:35:40;;;;;;;;;;;9.20;99.90;;;;;;5110915;27;20009;-72
2024/03/26 06:38:06;;;;;;;;;;;9.10;99.90;;;;;;5103986;28;20001;-73
2024/03/26 06:40:32;;;;;;;;;;;9.20;99.90;;;;;;5106702;27;20031;-72
2024/03/26 06:42:57;;;;;;;;;;;9.20;99.90;;;;;;5108433;27;19988;-72
2024/03/26 06:45:23;;;;;;;;;;;9.30;99.90;;;;;;5104847;28;20138;-72
2024/03/26 06:47:49;;;;;;;;;;;9.30;99.90;;;;;;5105326;28;19989;-72
2024/03/26 06:50:14;;;;;;;;;;;9.40;99.90;;;;;;5101937;27;20455;-72
2024/03/26 06:52:40;;;;;;;;;;;9.40;99.90;;;;;;5103732;28;20072;-72
2024/03/26 06:55:06;;;;;;;;;;;9.40;99.90;;;;;;5104277;27;20012;-72
2024/03/26 06:57:32;;;;;;;;;;;9.50;99.90;;;;;;5104737;28;19993;-72
2024/03/26 06:59:58;;;;;;;;;;;9.50;99.90;;;;;;5101544;27;20038;-71
2024/03/26 07:02:24;;;;;;;;;;;9.60;99.90;;;;;;5103329;28;20041;-72
2024/03/26 07:04:50;;;;;;;;;;;9.60;99.90;;;;;;5103977;28;20018;-71
2024/03/26 07:07:15;;;;;;;;;;;9.70;99.90;;;;;;5104051;28;20029;-72
2024/03/26 07:09:41;;;;;;;;;;;9.70;99.90;;;;;;5101630;28;20024;-72
2024/03/26 07:12:07;;;;;;;;;;;9.70;99.90;;;;;;5103705;28;19988;-72
2024/03/26 07:14:33;;;;;;;;;;;9.70;99.90;;;;;;5104199;27;20471;-72
2024/03/26 07:16:59;;;;;;;;;;;9.70;99.90;;;;;;5105700;27;20000;-71
2024/03/26 07:19:24;;;;;;;;;;;9.70;99.90;;;;;;5104931;28;20053;-72
2024/03/26 07:21:50;;;;;;;;;;;9.70;99.90;;;;;;5100243;27;20544;-72
2024/03/26 07:24:15;;;;;;;;;;;9.80;99.90;;;;;;5104732;27;19992;-72
2024/03/26 07:26:41;;;;;;;;;;;9.80;99.90;;;;;;5110238;27;19988;-74
2024/03/26 07:29:06;;;;;;;;;;;9.80;99.90;;;;;;5106848;27;20084;-74
2024/03/26 07:31:32;;;;;;;;;;;9.80;99.90;;;;;;5104052;28;20372;-74
2024/03/26 07:33:58;;;;;;;;;;;9.80;99.90;;;;;;5104675;28;20062;-74
2024/03/26 07:36:24;;;;;;;;;;;9.80;99.90;;;;;;5104130;28;20005;-74
2024/03/26 07:38:50;;;;;;;;;;;9.80;99.90;;;;;;5101693;28;20024;-74
2024/03/26 07:41:18;;;;;;;;;;;9.90;99.90;;;;;;5104423;28;20039;-74
2024/03/26 07:43:43;;;;;;;;;;;9.90;99.90;;;;;;5109183;27;19995;-74
2024/03/26 07:46:09;;;;;;;;;;;9.90;99.90;;;;;;5104337;28;19988;-74
2024/03/26 07:48:35;;;;;;;;;;;10.00;99.90;;;;;;5104398;28;19988;-74
2024/03/26 07:51:04;;;;;;;;;;;10.10;99.90;;;;;;5104266;28;20444;-74
2024/03/26 07:53:29;;;;;;;;;;;10.10;99.90;;;;;;5097450;28;20841;-74
2024/03/26 07:55:55;;;;;;;;;;;10.00;99.90;;;;;;5104115;28;20004;-74
2024/03/26 07:58:20;;;;;;;;;;;10.00;99.90;;;;;;5104046;28;19992;-73
2024/03/26 08:00:46;;;;;;;;;;;9.90;99.90;;;;;;5085513;28;19992;-74
2024/03/26 08:03:12;;;;;;;;;;;9.90;99.90;;;;;;5103893;28;20016;-73
2024/03/26 08:05:37;;;;;;;;;;;9.90;99.90;;;;;;5104075;28;20024;-74
2024/03/26 08:08:03;;;;;;;;;;;9.90;99.90;;;;;;5103683;28;19993;-74
2024/03/26 08:10:29;;;;;;;;;;;9.80;99.90;;;;;;5085002;28;20091;-73
2024/03/26 08:12:54;;;;;;;;;;;9.90;99.90;;;;;;5103946;28;20011;-74
2024/03/26 08:15:20;;;;;;;;;;;9.70;99.90;;;;;;5104061;28;20008;-74
2024/03/26 08:17:45;;;;;;;;;;;9.70;99.90;;;;;;5103824;28;20101;-73
2024/03/26 08:20:11;;;;;;;;;;;9.50;99.90;;;;;;5104038;28;19989;-74
2024/03/26 08:22:37;;;;;;;;;;;9.60;99.90;;;;;;5101894;28;20869;-74
2024/03/26 08:25:05;;;;;;;;;;;9.60;99.90;;;;;;5102328;28;19996;-74
2024/03/26 08:27:30;;;;;;;;;;;9.80;99.90;;;;;;5100001;28;19988;-74
2024/03/26 08:29:56;;;;;;;;;;;9.80;99.90;;;;;;5101327;28;20549;-74
2024/03/26 08:32:22;;;;;;;;;;;9.90;99.90;;;;;;5103742;28;19989;-74
2024/03/26 08:34:47;;;;;;;;;;;10.00;99.90;;;;;;5103602;28;20517;-74
2024/03/26 08:37:13;;;;;;;;;;;9.90;99.90;;;;;;5103523;28;19992;-74
2024/03/26 08:39:39;;;;;;;;;;;9.90;99.90;;;;;;5103412;28;20020;-74
2024/03/26 08:42:04;;;;;;;;;;;9.60;99.90;;;;;;5099236;27;20030;-74
2024/03/26 08:44:30;;;;;;;;;;;9.40;99.90;;;;;;5103529;28;20518;-74
2024/03/26 08:46:55;;;;;;;;;;;9.60;99.90;;;;;;5103532;28;20461;-74
2024/03/26 08:49:21;;;;;;;;;;;9.60;99.90;;;;;;5102778;28;20578;-74
2024/03/26 08:51:48;;;;;;;;;;;9.70;99.90;;;;;;5102131;28;19997;-74
2024/03/26 08:54:14;;;;;;;;;;;9.70;99.90;;;;;;5103383;28;19991;-74
2024/03/26 08:56:39;;;;;;;;;;;9.70;99.90;;;;;;5102995;28;20012;-74
2024/03/26 08:59:05;;;;;;;;;;;9.70;99.90;;;;;;5096780;28;19996;-74
2024/03/26 09:01:31;;;;;;;;;;;9.70;99.90;;;;;;5103164;28;19993;-74
2024/03/26 09:03:57;;;;;;;;;;;9.70;99.90;;;;;;5099372;28;19989;-74
2024/03/26 09:06:22;;;;;;;;;;;9.90;99.90;;;;;;5101306;28;20024;-74
2024/03/26 09:08:48;;;;;;;;;;;9.90;99.90;;;;;;5102824;28;20085;-74
2024/03/26 09:11:14;;;;;;;;;;;9.90;99.90;;;;;;5102682;28;20799;-74
2024/03/26 09:13:41;;;;;;;;;;;9.90;99.90;;;;;;5102666;28;19989;-74
2024/03/26 09:16:07;;;;;;;;;;;9.90;99.90;;;;;;5102665;28;20052;-74
2024/03/26 09:18:33;;;;;;;;;;;10.00;99.90;;;;;;5102585;28;20961;-74
2024/03/26 09:20:58;;;;;;;;;;;10.00;99.90;;;;;;5102277;28;19988;-74
2024/03/26 09:23:24;;;;;;;;;;;10.00;99.90;;;;;;5102577;28;19991;-74
2024/03/26 09:25:49;;;;;;;;;;;10.00;99.90;;;;;;5099844;28;19988;-74
2024/03/26 09:28:15;;;;;;;;;;;10.00;99.90;;;;;;5102309;28;20424;-74
2024/03/26 09:30:41;;;;;;;;;;;10.00;99.90;;;;;;5100622;28;20344;-74
2024/03/26 09:33:06;;;;;;;;;;;10.10;99.90;;;;;;5102513;28;19995;-74
2024/03/26 09:35:32;;;;;;;;;;;10.10;99.90;;;;;;5103047;28;20016;-74
2024/03/26 09:37:57;;;;;;;;;;;10.00;99.90;;;;;;5100899;28;20036;-74
2024/03/26 09:40:24;;;;;;;;;;;10.00;99.90;;;;;;5102300;28;20015;-74
2024/03/26 09:42:51;;;;;;;;;;;10.00;99.90;;;;;;5104266;28;20018;-74
2024/03/26 09:45:18;;;;;;;;;;;10.10;99.90;;;;;;5106960;28;19988;-74
2024/03/26 09:47:45;;;;;;;;;;;10.10;99.90;;;;;;5105650;28;19992;-74
2024/03/26 09:50:14;;;;;;;;;;;10.10;99.90;;;;;;5106555;28;19989;-74
2024/03/26 09:52:42;;;;;;;;;;;10.20;99.90;;;;;;5103908;28;20000;-74
2024/03/26 09:55:07;;;;;;;;;;;10.30;99.90;;;;;;5106474;28;20005;-74
2024/03/26 09:57:33;;;;;;;;;;;10.30;99.90;;;;;;5106076;28;20045;-74
2024/03/26 09:59:58;;;;;;;;;;;10.30;99.90;;;;;;5102176;28;19995;-74
2024/03/26 10:02:24;;;;;;;;;;;10.30;99.90;;;;;;5106477;28;19996;-74
2024/03/26 10:04:50;;;;;;;;;;;10.30;99.90;;;;;;5106230;28;19996;-74
2024/03/26 10:07:15;;;;;;;;;;;10.30;99.90;;;;;;5106455;28;20131;-74
2024/03/26 10:09:41;;;;;;;;;;;10.40;99.90;;;;;;5106079;28;19988;-74
2024/03/26 10:12:09;;;;;;;;;;;10.30;99.90;;;;;;5105755;28;19988;-74
2024/03/26 10:14:35;;;;;;;;;;;10.30;99.90;;;;;;5106210;28;20020;-74
2024/03/26 10:17:01;;;;;;;;;;;10.30;99.90;;;;;;5106015;28;20071;-74
2024/03/26 10:19:26;;;;;;;;;;;10.20;99.90;;;;;;5106129;28;20091;-74
2024/03/26 10:21:52;;;;;;;;;;;10.20;99.90;;;;;;5106016;28;19993;-74
2024/03/26 10:24:18;;;;;;;;;;;10.10;99.90;;;;;;5095478;28;20000;-74
2024/03/26 10:26:44;;;;;;;;;;;10.10;99.90;;;;;;5102066;28;20744;-74
2024/03/26 10:29:09;;;;;;;;;;;10.10;99.90;;;;;;5106526;28;19989;-74
2024/03/26 10:31:36;;;;;;;;;;;10.00;99.90;;;;;;5106254;28;19989;-74
2024/03/26 10:34:03;;;;;;;;;;;10.10;99.90;;;;;;5106106;28;20007;-74
2024/03/26 10:36:30;;;;;;;;;;;10.10;99.90;;;;;;5106012;28;20039;-74
2024/03/26 10:38:56;;;;;;;;;;;10.10;99.90;;;;;;5105808;28;20000;-74
2024/03/26 10:41:34;;;;;;;;;;;10.10;99.90;;;;;;5105336;28;19996;-74
2024/03/26 10:44:00;;;;;;;;;;;10.00;99.90;;;;;;5107473;27;19988;-74
2024/03/26 10:46:27;;;;;;;;;;;10.10;99.90;;;;;;5105642;28;19993;-74
2024/03/26 10:48:52;;;;;;;;;;;10.10;99.90;;;;;;5105164;28;20000;-74
2024/03/26 10:51:18;;;;;;;;;;;10.20;99.90;;;;;;5104948;28;19988;-74
2024/03/26 10:53:46;;;;;;;;;;;10.30;99.90;;;;;;5105602;28;19993;-74
2024/03/26 10:56:12;;;;;;;;;;;10.30;99.90;;;;;;5097532;28;20115;-74
2024/03/26 10:58:37;;;;;;;;;;;10.30;99.90;;;;;;5099719;28;20611;-73
2024/03/26 11:01:04;;;;;;;;;;;10.30;99.90;;;;;;5104055;28;19989;-74
2024/03/26 11:03:31;;;;;;;;;;;10.10;99.90;;;;;;5106108;27;20345;-74
2024/03/26 11:05:57;;;;;;;;;;;9.50;99.90;;;;;;5104817;28;20024;-74
2024/03/26 11:08:23;;;;;;;;;;;9.20;99.90;;;;;;5105001;28;19997;-74
2024/03/26 11:10:58;;;;;;;;;;;9.20;99.90;;;;;;5105098;28;19988;-73
2024/03/26 11:13:34;;;;;;;;;;;9.10;99.90;;;;;;5105095;28;19992;-73
2024/03/26 11:16:00;;;;;;;;;;;9.00;99.90;;;;;;5082581;28;20015;-74
2024/03/26 11:18:26;;;;;;;;;;;8.90;99.90;;;;;;5106526;27;19993;-74
2024/03/26 11:20:51;;;;;;;;;;;8.80;99.90;;;;;;5104716;28;20045;-73
2024/03/26 11:23:19;;;;;;;;;;;8.80;99.90;;;;;;5101736;28;19988;-74
2024/03/26 11:25:52;;;;;;;;;;;8.80;99.90;;;;;;5102102;28;20361;-73
2024/03/26 11:28:18;;;;;;;;;;;8.70;99.90;;;;;;5086035;28;20028;-73
2024/03/26 11:30:49;;;;;;;;;;;8.40;99.90;;;;;;5104969;28;20096;-73
2024/03/26 11:33:21;;;;;;;;;;;8.40;99.90;;;;;;5096161;28;19989;-73
2024/03/26 11:35:47;;;;;;;;;;;8.00;99.90;;;;;;5104795;28;20005;-74
2024/03/26 11:38:14;;;;;;;;;;;7.90;99.90;;;;;;5104854;28;19997;-73
2024/03/26 11:40:40;;;;;;;;;;;7.70;99.90;;;;;;5086421;28;20419;-73
2024/03/26 11:43:05;;;;;;;;;;;7.40;99.90;;;;;;5104872;27;20089;-73
2024/03/26 11:45:31;;;;;;;;;;;7.40;99.90;;;;;;5100801;28;20397;-74
2024/03/26 11:47:56;;;;;;;;;;;7.20;99.90;;;;;;5105200;28;19994;-74
2024/03/26 11:50:22;;;;;;;;;;;7.30;99.90;;;;;;5104959;28;19989;-74
2024/03/26 11:52:48;;;;;;;;;;;7.30;99.90;;;;;;5104302;28;19989;-74
2024/03/26 11:55:13;;;;;;;;;;;7.30;99.90;;;;;;5104577;28;20443;-74
2024/03/26 11:57:39;;;;;;;;;;;7.30;99.90;;;;;;5102408;28;20003;-74
2024/03/26 12:00:05;;;;;;;;;;;7.40;99.90;;;;;;5097596;28;19996;-74
2024/03/26 12:02:31;;;;;;;;;;;7.30;99.90;;;;;;5104426;28;19993;-73
2024/03/26 12:04:58;;;;;;;;;;;7.20;99.90;;;;;;5104194;28;20038;-73
2024/03/26 12:07:29;;;;;;;;;;;7.10;99.90;;;;;;5103641;28;20025;-73
2024/03/26 12:09:54;;;;;;;;;;;6.90;99.90;;;;;;5104302;28;20518;-73
2024/03/26 12:12:20;;;;;;;;;;;6.70;99.90;;;;;;5104095;28;19988;-74
2024/03/26 12:14:45;;;;;;;;;;;6.50;99.90;;;;;;5104345;28;20027;-73
2024/03/26 12:17:11;;;;;;;;;;;6.50;99.90;;;;;;5104123;28;20023;-74
2024/03/26 12:19:46;;;;;;;;;;;6.50;99.90;;;;;;5104290;28;20083;-73
2024/03/26 12:22:16;;;;;;;;;;;6.50;99.90;;;;;;5103837;28;20175;-73
2024/03/26 12:24:41;;;;;;;;;;;6.40;99.90;;;;;;5101412;28;19991;-73
2024/03/26 12:27:07;;;;;;;;;;;6.20;99.90;;;;;;5100038;28;19989;-74
2024/03/26 12:29:33;;;;;;;;;;;6.30;99.90;;;;;;5103872;28;19999;-73
2024/03/26 12:31:59;;;;;;;;;;;6.10;99.90;;;;;;5103790;28;19993;-74
2024/03/26 12:34:25;;;;;;;;;;;6.20;99.90;;;;;;5101363;28;19989;-73
2024/03/26 12:36:50;;;;;;;;;;;6.20;99.90;;;;;;5103569;28;20088;-73
2024/03/26 12:39:16;;;;;;;;;;;6.00;99.90;;;;;;5103807;28;20099;-74
2024/03/26 12:41:41;;;;;;;;;;;6.00;99.90;;;;;;5103214;28;19988;-74
2024/03/26 12:44:11;;;;;;;;;;;5.80;99.90;;;;;;5106101;27;19995;-73
2024/03/26 12:46:36;;;;;;;;;;;5.70;99.90;;;;;;5103503;28;20459;-74
2024/03/26 12:49:05;;;;;;;;;;;6.10;99.90;;;;;;5103349;28;19996;-74
2024/03/26 12:51:31;;;;;;;;;;;6.10;99.90;;;;;;5103603;28;20079;-73
2024/03/26 12:54:03;;;;;;;;;;;6.20;99.90;;;;;;5102825;28;20038;-74
2024/03/26 12:56:32;;;;;;;;;;;6.20;99.90;;;;;;5103267;28;20001;-73
2024/03/26 12:58:58;;;;;;;;;;;6.00;99.90;;;;;;5103059;28;20070;-73
2024/03/26 13:01:25;;;;;;;;;;;6.30;99.90;;;;;;5100067;28;20524;-73
2024/03/26 13:03:51;;;;;;;;;;;6.30;99.90;;;;;;5102974;28;20042;-73
2024/03/26 13:06:17;;;;;;;;;;;6.40;99.90;;;;;;5096098;28;20059;-73
2024/03/26 13:08:42;;;;;;;;;;;6.20;99.90;;;;;;5084016;28;20874;-73
2024/03/26 13:11:12;;;;;;;;;;;6.30;99.90;;;;;;5102862;28;19989;-73
2024/03/26 13:13:41;;;;;;;;;;;5.90;99.90;;;;;;5102718;28;20043;-74
2024/03/26 13:16:07;;;;;;;;;;;6.30;99.90;;;;;;5102921;28;20020;-74
2024/03/26 13:18:33;;;;;;;;;;;6.60;99.90;;;;;;5102423;28;19996;-74
2024/03/26 13:20:58;;;;;;;;;;;6.40;99.90;;;;;;5103074;28;19989;-74
2024/03/26 13:23:24;;;;;;;;;;;6.30;99.90;;;;;;5102333;27;19985;-73
2024/03/26 13:25:49;;;;;;;;;;;5.90;99.90;;;;;;5096343;28;20072;-73
2024/03/26 13:28:15;;;;;;;;;;;6.10;99.90;;;;;;5101145;28;19999;-74
2024/03/26 13:30:41;;;;;;;;;;;6.50;99.90;;;;;;5096633;28;19989;-74
2024/03/26 13:33:06;;;;;;;;;;;6.20;99.90;;;;;;5102916;28;19989;-73
2024/03/26 13:35:32;;;;;;;;;;;5.90;99.90;;;;;;5102691;28;20035;-73
2024/03/26 13:37:58;;;;;;;;;;;6.20;99.90;;;;;;5102402;28;20056;-73
2024/03/26 13:40:23;;;;;;;;;;;6.30;99.90;;;;;;5084125;28;19997;-73
2024/03/26 13:42:49;;;;;;;;;;;6.20;99.90;;;;;;5105773;28;19989;-74
2024/03/26 13:45:14;;;;;;;;;;;6.20;99.90;;;;;;5102624;28;19989;-73
2024/03/26 13:47:40;;;;;;;;;;;6.10;99.90;;;;;;5102502;28;19996;-73
2024/03/26 13:50:07;;;;;;;;;;;6.10;99.90;;;;;;5102640;28;20103;-73
2024/03/26 13:52:32;;;;;;;;;;;6.30;99.90;;;;;;5102122;28;20099;-73
2024/03/26 13:54:58;;;;;;;;;;;6.40;99.90;;;;;;5102707;28;20008;-73
2024/03/26 13:57:24;;;;;;;;;;;6.50;99.90;;;;;;5102542;28;19989;-74
2024/03/26 13:59:50;;;;;;;;;;;7.00;99.90;;;;;;5102508;28;19995;-74
2024/03/26 14:02:15;;;;;;;;;;;7.20;99.90;;;;;;5102272;28;19989;-74
2024/03/26 14:04:41;;;;;;;;;;;7.60;99.90;;;;;;5102701;28;20467;-74
2024/03/26 14:07:06;;;;;;;;;;;8.00;99.90;;;;;;5102175;28;20020;-73
2024/03/26 14:09:32;;;;;;;;;;;8.50;99.90;;;;;;5102023;28;19999;-74
2024/03/26 14:11:58;;;;;;;;;;;8.80;99.90;;;;;;5102128;28;19988;-74
2024/03/26 14:14:24;;;;;;;;;;;8.20;99.90;;;;;;5102110;28;19984;-73
2024/03/26 14:16:49;;;;;;;;;;;8.00;99.90;;;;;;5096880;28;20016;-74
2024/03/26 14:19:15;;;;;;;;;;;8.20;99.90;;;;;;5099698;28;19988;-74
2024/03/26 14:21:40;;;;;;;;;;;8.00;99.90;;;;;;5100120;28;20038;-74